Time;durP1;ratioP1;P1;durP2;ratioP2;P2;SDS_P1;SDS_P2;PMS_P1;PMS_P2;Temp;Humidity;BMP_temperature;BMP_pressure;BME280_temperature;BME280_humidity;BME280_pressure;Samples;Min_cycle;Max_cycle;Signal;HPM_P1;HPM_P2
2022/05/28 00:01:03;;;;;;;11.53;4.20;;;15.80;1.00;;;;;;5094348;28;20217;-80
2022/05/28 00:03:30;;;;;;;13.20;4.00;;;15.70;1.00;;;;;;5095818;28;20193;-83
2022/05/28 00:05:59;;;;;;;12.83;4.13;;;15.80;1.00;;;;;;5095443;28;20635;-82
2022/05/28 00:08:24;;;;;;;12.87;4.30;;;15.70;1.00;;;;;;5094810;28;20207;-82
2022/05/28 00:10:54;;;;;;;12.10;4.37;;;15.60;1.00;;;;;;5094914;28;20217;-84
2022/05/28 00:13:19;;;;;;;13.37;4.67;;;15.50;1.00;;;;;;5094719;28;20168;-81
2022/05/28 00:15:45;;;;;;;11.63;3.77;;;15.40;1.00;;;;;;5094797;28;20254;-83
2022/05/28 00:18:10;;;;;;;9.10;4.37;;;15.40;1.00;;;;;;5094704;28;20600;-83
2022/05/28 00:20:36;;;;;;;9.57;3.87;;;15.30;1.00;;;;;;5094910;28;20643;-80
2022/05/28 00:23:04;;;;;;;10.57;3.70;;;15.30;1.00;;;;;;5094660;28;20175;-79
2022/05/28 00:25:30;;;;;;;11.47;4.13;;;15.10;1.00;;;;;;5094768;28;20649;-83
2022/05/28 00:27:55;;;;;;;10.37;4.27;;;15.10;1.00;;;;;;5076364;28;20207;-83
2022/05/28 00:30:22;;;;;;;10.20;3.90;;;15.10;1.00;;;;;;5076328;28;20577;-81
2022/05/28 00:32:48;;;;;;;10.10;4.00;;;15.00;1.00;;;;;;5095276;28;20259;-83
2022/05/28 00:35:17;;;;;;;8.03;3.40;;;14.90;1.00;;;;;;5095673;28;20211;-82
2022/05/28 00:37:47;;;;;;;12.07;4.13;;;14.80;5.10;;;;;;5078056;28;20270;-82
2022/05/28 00:40:18;;;;;;;12.27;4.50;;;14.80;6.80;;;;;;5096509;28;20191;-80
2022/05/28 00:42:44;;;;;;;10.73;4.13;;;14.70;9.20;;;;;;5098051;28;20200;-81
2022/05/28 00:45:10;;;;;;;12.33;4.20;;;14.70;14.00;;;;;;5101597;28;20184;-81
2022/05/28 00:47:42;;;;;;;11.67;3.90;;;14.70;15.00;;;;;;5110952;28;20179;-81
2022/05/28 00:50:09;;;;;;;10.10;4.57;;;14.70;17.30;;;;;;5112913;28;20273;-81
2022/05/28 00:52:35;;;;;;;12.53;5.03;;;14.50;19.30;;;;;;5098107;28;20174;-78
2022/05/28 00:55:01;;;;;;;9.60;4.20;;;14.40;22.20;;;;;;5117809;28;20167;-78
2022/05/28 00:57:27;;;;;;;10.97;4.40;;;14.40;21.40;;;;;;5118499;28;20163;-79
2022/05/28 00:59:56;;;;;;;10.30;4.23;;;14.50;20.30;;;;;;5118620;28;20191;-79
2022/05/28 01:02:34;;;;;;;9.47;4.40;;;14.60;20.10;;;;;;5113036;28;20195;-82
2022/05/28 01:05:13;;;;;;;10.10;4.17;;;14.60;18.60;;;;;;5101025;28;20183;-80
2022/05/28 01:08:00;;;;;;;10.77;4.10;;;14.50;21.30;;;;;;5098508;28;21035;-83
2022/05/28 01:10:32;;;;;;;9.10;4.40;;;14.30;24.80;;;;;;5094447;28;20207;-80
2022/05/28 01:13:17;;;;;;;10.40;4.90;;;14.30;26.20;;;;;;5094125;28;20183;-79
2022/05/28 01:15:53;;;;;;;8.80;4.47;;;14.30;26.20;;;;;;5076393;28;20176;-83
2022/05/28 01:18:33;;;;;;;10.07;4.50;;;14.20;27.60;;;;;;5095057;28;20262;-81
2022/05/28 01:21:06;;;;;;;9.40;4.07;;;14.30;25.60;;;;;;5093793;28;20649;-78
2022/05/28 01:23:54;;;;;;;11.07;4.43;;;14.20;24.60;;;;;;5093588;28;20659;-81
2022/05/28 01:26:43;;;;;;;10.67;4.53;;;14.20;25.00;;;;;;5093917;28;20198;-80
2022/05/28 01:29:11;;;;;;;9.20;4.53;;;14.20;26.10;;;;;;5093561;28;20291;-82
2022/05/28 01:31:38;;;;;;;12.43;4.63;;;14.10;27.10;;;;;;5103325;28;20189;-83
2022/05/28 01:34:06;;;;;;;8.63;4.00;;;14.10;28.00;;;;;;5108641;28;20189;-79
2022/05/28 01:36:35;;;;;;;12.57;4.53;;;14.10;28.30;;;;;;5081186;28;20181;-80
2022/05/28 01:39:01;;;;;;;11.83;4.37;;;14.20;27.50;;;;;;5093804;28;20646;-84
2022/05/28 01:41:31;;;;;;;12.37;4.40;;;14.10;27.30;;;;;;5093985;28;20222;-81
2022/05/28 01:43:58;;;;;;;10.57;4.23;;;14.00;28.70;;;;;;5093615;28;20179;-78
2022/05/28 01:46:28;;;;;;;16.87;4.70;;;13.90;28.50;;;;;;5075659;28;20676;-82
2022/05/28 01:48:55;;;;;;;12.97;4.83;;;13.90;31.00;;;;;;5093615;28;20210;-83
2022/05/28 01:51:25;;;;;;;12.43;4.77;;;14.00;28.80;;;;;;5093503;28;20179;-83
2022/05/28 01:54:07;;;;;;;12.90;4.53;;;13.90;28.90;;;;;;5075315;28;20635;-79
2022/05/28 01:56:48;;;;;;;9.40;4.63;;;13.90;30.20;;;;;;5093712;28;20498;-81
2022/05/28 01:59:17;;;;;;;7.83;3.93;;;13.90;30.80;;;;;;5094291;28;20186;-80
2022/05/28 02:01:43;;;;;;;12.37;4.73;;;13.80;32.30;;;;;;5094292;28;20183;-82
2022/05/28 02:04:10;;;;;;;12.30;4.30;;;13.80;33.40;;;;;;5107839;28;20191;-78
2022/05/28 02:06:38;;;;;;;13.40;4.97;;;13.70;34.90;;;;;;5109750;28;20198;-79
2022/05/28 02:09:06;;;;;;;14.73;5.00;;;13.80;34.40;;;;;;5097164;28;20210;-83
2022/05/28 02:12:07;;;;;;;7.67;3.97;;;13.90;32.40;;;;;;5076980;28;20199;-82
2022/05/28 02:14:57;;;;;;;13.83;4.70;;;13.90;33.50;;;;;;5094071;28;20189;-79
2022/05/28 02:17:38;;;;;;;10.97;5.10;;;13.90;33.30;;;;;;5094171;28;20195;-80
2022/05/28 02:20:08;;;;;;;10.50;4.27;;;13.90;32.90;;;;;;5079068;28;20196;-82
2022/05/28 02:22:34;;;;;;;13.00;5.10;;;13.90;31.90;;;;;;5109656;28;20164;-80
2022/05/28 02:25:06;;;;;;;11.80;4.33;;;13.90;31.80;;;;;;5120571;28;20258;-81
2022/05/28 02:27:33;;;;;;;11.37;4.67;;;13.80;34.80;;;;;;5084575;28;20188;-81
2022/05/28 02:30:02;;;;;;;12.60;5.07;;;13.80;36.10;;;;;;5100311;28;20210;-81
2022/05/28 02:32:35;;;;;;;12.40;4.70;;;13.70;37.70;;;;;;5099546;28;20288;-80
2022/05/28 02:35:00;;;;;;;8.87;4.80;;;13.70;38.10;;;;;;5086340;28;20190;-81
2022/05/28 02:37:28;;;;;;;11.13;4.63;;;13.60;39.00;;;;;;5107986;28;20197;-81
2022/05/28 02:39:54;;;;;;;18.33;5.13;;;13.50;43.40;;;;;;5119677;28;20180;-80
2022/05/28 02:42:20;;;;;;;14.63;5.17;;;13.40;46.30;;;;;;5118953;28;20174;-81
2022/05/28 02:44:46;;;;;;;14.27;4.77;;;13.50;46.70;;;;;;5099983;28;20179;-82
2022/05/28 02:47:12;;;;;;;12.87;4.67;;;13.60;43.80;;;;;;5102139;28;20263;-81
2022/05/28 02:49:38;;;;;;;11.20;4.93;;;13.70;42.60;;;;;;5117215;28;20707;-81
2022/05/28 02:52:05;;;;;;;13.67;4.93;;;13.60;41.90;;;;;;5100846;28;20196;-81
2022/05/28 02:54:34;;;;;;;11.97;4.80;;;13.60;41.80;;;;;;5100589;28;20191;-82
2022/05/28 02:57:05;;;;;;;10.63;4.90;;;13.60;41.80;;;;;;5099366;28;20182;-82
2022/05/28 02:59:38;;;;;;;14.30;5.00;;;13.70;40.50;;;;;;5078744;28;20199;-80
2022/05/28 03:02:04;;;;;;;9.87;4.20;;;13.80;38.70;;;;;;5096589;28;20185;-82
2022/05/28 03:04:30;;;;;;;13.00;5.30;;;13.80;35.80;;;;;;5095950;28;20243;-79
2022/05/28 03:06:56;;;;;;;12.90;4.47;;;13.70;35.80;;;;;;5077436;28;20193;-83
2022/05/28 03:09:22;;;;;;;9.13;4.77;;;13.50;40.00;;;;;;5095892;28;20214;-85
2022/05/28 03:11:48;;;;;;;9.70;4.93;;;13.40;43.70;;;;;;5095532;28;20197;-83
2022/05/28 03:14:14;;;;;;;14.23;5.13;;;13.30;45.10;;;;;;5096156;28;20194;-79
2022/05/28 03:16:42;;;;;;;14.93;5.30;;;13.30;45.10;;;;;;5095824;28;20240;-82
2022/05/28 03:19:08;;;;;;;15.53;5.20;;;13.40;44.40;;;;;;5096171;28;20185;-78
2022/05/28 03:21:34;;;;;;;12.60;4.70;;;13.40;43.40;;;;;;5078663;28;20617;-83
2022/05/28 03:24:00;;;;;;;10.60;4.97;;;13.40;41.50;;;;;;5095972;28;20200;-82
2022/05/28 03:26:29;;;;;;;13.87;5.23;;;13.40;42.40;;;;;;5095762;28;20538;-83
2022/05/28 03:28:56;;;;;;;12.13;5.47;;;13.30;45.20;;;;;;5095362;28;20219;-84
2022/05/28 03:31:23;;;;;;;10.97;4.90;;;13.20;46.30;;;;;;5095221;28;20185;-82
2022/05/28 03:33:50;;;;;;;11.43;5.07;;;13.10;48.60;;;;;;5104364;28;20190;-79
2022/05/28 03:36:16;;;;;;;12.03;5.50;;;13.10;49.50;;;;;;5107898;28;20193;-81
2022/05/28 03:38:42;;;;;;;11.53;5.27;;;13.10;50.90;;;;;;5101175;28;20179;-82
2022/05/28 03:41:09;;;;;;;11.07;4.77;;;13.20;47.70;;;;;;5095108;28;20190;-83
2022/05/28 03:43:34;;;;;;;9.27;4.77;;;13.10;50.30;;;;;;5095380;28;20187;-84
2022/05/28 03:46:01;;;;;;;12.10;5.10;;;13.10;52.40;;;;;;5095000;28;20271;-82
2022/05/28 03:48:27;;;;;;;13.50;4.90;;;13.10;51.70;;;;;;5095975;28;20179;-81
2022/05/28 03:50:52;;;;;;;9.90;4.73;;;13.20;51.10;;;;;;5094687;28;20227;-81
2022/05/28 03:53:19;;;;;;;10.97;4.70;;;13.10;50.90;;;;;;5095213;28;20189;-83
2022/05/28 03:55:45;;;;;;;10.53;4.90;;;13.10;50.70;;;;;;5095343;28;20168;-81
2022/05/28 03:58:12;;;;;;;10.93;5.23;;;13.00;51.30;;;;;;5077545;28;20192;-83
2022/05/28 04:00:38;;;;;;;8.40;4.73;;;13.00;54.50;;;;;;5095771;28;20182;-84
2022/05/28 04:03:04;;;;;;;15.60;5.23;;;12.90;54.70;;;;;;5095591;28;20197;-81
2022/05/28 04:05:30;;;;;;;9.50;4.67;;;12.90;53.60;;;;;;5084148;28;20179;-83
2022/05/28 04:07:56;;;;;;;14.33;5.03;;;12.90;55.50;;;;;;5100319;28;20181;-83
2022/05/28 04:10:21;;;;;;;16.37;5.50;;;12.80;55.90;;;;;;5098494;28;20200;-82
2022/05/28 04:12:48;;;;;;;11.93;5.10;;;12.80;56.60;;;;;;5089837;28;20183;-83
2022/05/28 04:15:14;;;;;;;11.63;4.87;;;12.80;55.80;;;;;;5089694;28;20197;-81
2022/05/28 04:17:40;;;;;;;10.90;5.10;;;12.90;54.40;;;;;;5081977;28;20219;-80
2022/05/28 04:20:08;;;;;;;11.87;5.17;;;13.00;52.20;;;;;;5117868;28;20175;-81
2022/05/28 04:22:34;;;;;;;12.20;5.07;;;13.00;52.10;;;;;;5117111;28;20200;-78
2022/05/28 04:25:00;;;;;;;11.67;5.33;;;13.20;51.50;;;;;;5119426;28;20194;-82
2022/05/28 04:27:25;;;;;;;12.50;5.10;;;13.10;51.60;;;;;;5095587;28;20278;-84
2022/05/28 04:29:54;;;;;;;13.13;5.10;;;13.30;49.60;;;;;;5104256;28;20242;-81
2022/05/28 04:32:22;;;;;;;8.13;4.57;;;13.30;48.10;;;;;;5101552;28;20185;-82
2022/05/28 04:34:51;;;;;;;12.77;5.30;;;13.30;48.10;;;;;;5095531;28;20181;-83
2022/05/28 04:37:17;;;;;;;10.67;4.83;;;13.30;47.40;;;;;;5095135;28;20265;-83
2022/05/28 04:39:44;;;;;;;12.33;4.83;;;13.30;47.70;;;;;;5094653;28;20653;-79
2022/05/28 04:42:10;;;;;;;11.63;4.70;;;13.30;45.20;;;;;;5094695;28;20186;-83
2022/05/28 04:44:36;;;;;;;15.67;5.40;;;13.40;45.20;;;;;;5104745;28;20213;-79
2022/05/28 04:47:02;;;;;;;12.57;5.20;;;13.50;40.80;;;;;;5118287;28;20169;-80
2022/05/28 04:49:27;;;;;;;13.03;5.37;;;13.40;40.90;;;;;;5100047;28;20228;-82
2022/05/28 04:51:54;;;;;;;13.67;4.93;;;13.70;40.30;;;;;;5118721;28;20227;-77
2022/05/28 04:54:41;;;;;;;12.03;5.00;;;13.80;37.70;;;;;;5110876;28;20194;-83
2022/05/28 04:57:23;;;;;;;9.80;4.53;;;13.70;37.30;;;;;;5101535;28;20182;-82
2022/05/28 04:59:51;;;;;;;11.37;5.37;;;13.80;36.50;;;;;;5097538;28;20191;-82
2022/05/28 05:02:20;;;;;;;13.33;5.30;;;13.90;35.90;;;;;;5076939;28;20197;-83
2022/05/28 05:04:45;;;;;;;11.20;5.27;;;13.80;35.10;;;;;;5115749;28;20186;-77
2022/05/28 05:07:11;;;;;;;14.43;5.33;;;14.00;34.00;;;;;;5110231;28;20198;-81
2022/05/28 05:09:37;;;;;;;13.33;5.17;;;14.10;34.00;;;;;;5095727;28;20218;-82
2022/05/28 05:12:06;;;;;;;12.73;5.50;;;14.30;30.60;;;;;;5094327;28;20262;-82
2022/05/28 05:14:31;;;;;;;13.53;5.00;;;14.40;27.00;;;;;;5076015;28;20186;-83
2022/05/28 05:16:58;;;;;;;14.63;5.27;;;14.60;19.40;;;;;;5093791;28;20191;-82
2022/05/28 05:19:23;;;;;;;16.50;5.70;;;14.60;17.40;;;;;;5075655;28;20189;-83
2022/05/28 05:21:54;;;;;;;12.97;6.80;;;14.70;16.00;;;;;;5094008;28;20661;-80
2022/05/28 05:24:24;;;;;;;14.87;5.27;;;14.40;17.30;;;;;;5077472;28;20207;-80
2022/05/28 05:26:50;;;;;;;8.93;5.07;;;14.40;21.60;;;;;;5094088;28;20189;-82
2022/05/28 05:29:17;;;;;;;11.20;4.70;;;14.40;21.90;;;;;;5093262;28;20211;-81
2022/05/28 05:31:43;;;;;;;11.87;4.53;;;14.30;24.60;;;;;;5099029;28;20178;-83
2022/05/28 05:34:08;;;;;;;18.00;5.40;;;14.20;28.40;;;;;;5102165;28;20183;-80
2022/05/28 05:36:36;;;;;;;12.90;4.57;;;14.20;29.70;;;;;;5100127;28;20184;-83
2022/05/28 05:39:03;;;;;;;14.23;4.70;;;14.20;31.40;;;;;;5102508;28;20192;-82
2022/05/28 05:41:28;;;;;;;10.73;4.93;;;14.10;31.20;;;;;;5108123;28;20319;-81
2022/05/28 05:43:54;;;;;;;11.73;4.97;;;14.20;31.50;;;;;;5109113;28;20182;-82
2022/05/28 05:46:20;;;;;;;8.67;4.47;;;14.30;32.40;;;;;;5096778;28;20182;-82
2022/05/28 05:48:46;;;;;;;12.17;4.80;;;14.40;28.40;;;;;;5094005;28;20740;-80
2022/05/28 05:51:15;;;;;;;10.67;4.37;;;14.30;32.50;;;;;;5094071;28;20186;-81
2022/05/28 05:53:43;;;;;;;9.27;4.70;;;14.30;30.70;;;;;;5094389;28;20190;-82
2022/05/28 05:56:09;;;;;;;11.40;4.93;;;14.20;33.00;;;;;;5079767;28;20664;-79
2022/05/28 05:58:36;;;;;;;11.67;4.53;;;14.20;34.00;;;;;;5097647;28;20186;-82
2022/05/28 06:01:03;;;;;;;14.87;5.20;;;14.30;35.00;;;;;;5097823;28;20710;-82
2022/05/28 06:03:29;;;;;;;10.93;5.17;;;14.30;31.40;;;;;;5099411;28;20560;-82
2022/05/28 06:05:59;;;;;;;15.20;5.10;;;14.00;39.80;;;;;;5081064;28;20182;-79
2022/05/28 06:08:26;;;;;;;11.40;4.40;;;14.10;41.90;;;;;;5101294;28;20197;-82
2022/05/28 06:10:52;;;;;;;9.27;4.23;;;14.20;41.40;;;;;;5082114;28;20219;-82
2022/05/28 06:13:19;;;;;;;8.83;4.80;;;14.40;37.00;;;;;;5102073;28;20188;-80
2022/05/28 06:15:45;;;;;;;9.70;4.57;;;14.50;38.10;;;;;;5102145;28;20586;-82
2022/05/28 06:18:13;;;;;;;13.00;5.30;;;14.50;38.40;;;;;;5110121;28;20187;-79
2022/05/28 06:20:40;;;;;;;11.07;3.97;;;14.80;35.20;;;;;;5092724;28;20668;-80
2022/05/28 06:23:06;;;;;;;13.63;3.83;;;14.70;34.60;;;;;;5102218;28;20214;-83
2022/05/28 06:25:31;;;;;;;14.63;3.90;;;14.70;36.30;;;;;;5082794;28;20189;-83
2022/05/28 06:27:57;;;;;;;9.27;3.57;;;14.60;39.20;;;;;;5104321;28;20656;-82
2022/05/28 06:30:24;;;;;;;11.87;3.23;;;14.70;39.30;;;;;;5102410;28;20216;-82
2022/05/28 06:32:50;;;;;;;11.70;3.13;;;14.80;39.00;;;;;;5101738;28;20182;-81
2022/05/28 06:35:16;;;;;;;10.20;3.20;;;14.80;38.20;;;;;;5100643;28;20242;-83
2022/05/28 06:37:41;;;;;;;11.70;3.90;;;14.70;41.60;;;;;;5082182;28;20651;-83
2022/05/28 06:40:08;;;;;;;11.83;2.90;;;14.70;40.70;;;;;;5080941;28;20201;-83
2022/05/28 06:42:38;;;;;;;9.43;3.20;;;14.70;38.20;;;;;;5081699;28;20192;-81
2022/05/28 06:45:04;;;;;;;9.97;2.90;;;14.80;41.10;;;;;;5090034;28;20194;-81
2022/05/28 06:47:30;;;;;;;8.30;2.67;;;14.70;42.10;;;;;;5109724;28;20185;-79
2022/05/28 06:52:41;;;;;;;7.90;2.10;;;14.80;43.50;;;;;;5100495;28;20196;-82
2022/05/28 06:55:07;;;;;;;11.13;2.63;;;15.00;34.60;;;;;;5098154;28;20186;-83
2022/05/28 06:57:32;;;;;;;8.47;3.20;;;14.90;37.10;;;;;;5097657;28;20185;-82
2022/05/28 06:59:58;;;;;;;7.63;2.37;;;15.00;31.90;;;;;;5079761;28;20294;-83
2022/05/28 07:02:24;;;;;;;10.03;2.53;;;15.00;23.90;;;;;;5098731;28;20193;-82
2022/05/28 07:04:56;;;;;;;7.47;2.10;;;14.90;23.00;;;;;;5099082;28;20217;-82
2022/05/28 07:07:22;;;;;;;12.53;3.13;;;15.10;25.30;;;;;;5082403;28;20272;-84
2022/05/28 07:09:48;;;;;;;13.43;3.10;;;15.20;29.50;;;;;;5106290;28;20763;-82
2022/05/28 07:12:17;;;;;;;10.57;2.67;;;15.30;29.00;;;;;;5110189;28;20187;-81
2022/05/28 07:14:45;;;;;;;7.13;2.03;;;15.30;23.20;;;;;;5111217;28;20236;-78
2022/05/28 07:17:18;;;;;;;9.37;2.50;;;15.30;8.30;;;;;;5108491;28;20179;-82
2022/05/28 07:19:44;;;;;;;7.97;1.90;;;15.40;19.70;;;;;;5100078;28;20186;-81
2022/05/28 07:22:11;;;;;;;11.07;2.03;;;15.50;12.20;;;;;;5080957;28;20187;-79
2022/05/28 07:24:37;;;;;;;9.00;2.50;;;15.50;1.00;;;;;;5107633;28;20243;-82
2022/05/28 07:27:03;;;;;;;5.50;1.80;;;15.60;1.00;;;;;;5119415;28;20203;-81
2022/05/28 07:29:29;;;;;;;7.17;1.63;;;15.50;1.00;;;;;;5105677;28;20677;-81
2022/05/28 07:32:02;;;;;;;4.80;1.43;;;15.50;1.00;;;;;;5102080;28;20218;-83
2022/05/28 07:34:34;;;;;;;6.97;1.43;;;15.60;1.00;;;;;;5105972;28;20350;-82
2022/05/28 07:37:00;;;;;;;5.57;1.63;;;15.50;1.00;;;;;;5104160;28;20209;-80
2022/05/28 07:39:26;;;;;;;6.60;1.83;;;15.70;1.00;;;;;;5107422;28;20203;-80
2022/05/28 07:41:52;;;;;;;7.80;1.93;;;15.60;1.00;;;;;;5081177;28;20228;-83
2022/05/28 07:44:18;;;;;;;6.17;1.73;;;15.60;1.00;;;;;;5117045;28;20182;-77
2022/05/28 07:46:46;;;;;;;6.33;1.77;;;15.70;1.00;;;;;;5098777;28;20182;-80
2022/05/28 07:49:13;;;;;;;6.63;1.40;;;16.00;1.00;;;;;;5115709;28;20662;-80
2022/05/28 07:51:55;;;;;;;6.40;1.80;;;15.90;1.00;;;;;;5117294;28;20176;-77
2022/05/28 07:54:47;;;;;;;7.23;1.63;;;15.90;1.00;;;;;;5100605;28;20203;-82
2022/05/28 07:57:17;;;;;;;7.00;1.67;;;16.10;1.00;;;;;;5117737;28;20292;-83
2022/05/28 07:59:59;;;;;;;7.73;1.67;;;16.00;1.00;;;;;;5085529;28;20245;-82
2022/05/28 08:05:51;;;;;;;8.30;1.30;;;16.00;1.00;;;;;;5101920;28;20308;-83
2022/05/28 08:08:19;;;;;;;6.17;2.00;;;16.00;1.00;;;;;;5097083;28;20195;-83
2022/05/28 08:10:45;;;;;;;6.73;1.70;;;16.00;1.00;;;;;;5096857;28;20219;-84
2022/05/28 08:13:19;;;;;;;5.80;1.77;;;15.90;1.00;;;;;;5098640;28;20176;-85
2022/05/28 08:15:50;;;;;;;6.87;1.50;;;15.80;1.00;;;;;;5098242;28;20181;-83
2022/05/28 08:18:19;;;;;;;6.07;1.77;;;15.50;1.00;;;;;;5097187;28;20206;-83
2022/05/28 08:23:31;;;;;;;5.43;1.53;;;15.50;1.00;;;;;;5082473;28;20189;-84
2022/05/28 08:25:57;;;;;;;5.80;1.60;;;15.70;1.00;;;;;;5097622;28;20182;-82
2022/05/28 08:28:23;;;;;;;6.93;1.70;;;16.00;1.00;;;;;;5096045;28;20227;-81
2022/05/28 08:30:49;;;;;;;5.33;1.67;;;16.00;1.00;;;;;;5095367;28;20256;-84
2022/05/28 08:33:16;;;;;;;7.40;1.60;;;16.00;1.00;;;;;;5096939;28;20191;-85
2022/05/28 08:35:44;;;;;;;6.87;1.30;;;16.00;1.00;;;;;;5077534;28;20202;-83
2022/05/28 08:38:13;;;;;;;4.90;1.50;;;15.90;1.00;;;;;;5094983;28;20654;-84
2022/05/28 08:41:14;;;;;;;5.20;1.43;;;16.00;1.00;;;;;;5080434;28;20589;-84
2022/05/28 08:43:47;;;;;;;5.53;1.60;;;15.80;1.00;;;;;;5084685;28;20189;-81
2022/05/28 08:46:15;;;;;;;3.53;1.40;;;15.70;1.00;;;;;;5116157;28;20180;-82
2022/05/28 08:48:50;;;;;;;4.70;1.20;;;15.70;1.00;;;;;;5117396;28;20223;-81
2022/05/28 08:51:27;;;;;;;6.00;1.60;;;15.50;1.00;;;;;;5118030;28;20200;-82
2022/05/28 08:54:10;;;;;;;4.57;1.50;;;15.30;1.00;;;;;;5107712;28;20210;-83
2022/05/28 08:56:41;;;;;;;6.13;2.00;;;15.40;1.00;;;;;;5103598;28;20191;-83
2022/05/28 08:59:43;;;;;;;8.00;1.70;;;15.50;1.00;;;;;;5099248;28;20170;-81
2022/05/28 09:02:48;;;;;;;3.10;1.30;;;15.70;1.00;;;;;;5073707;28;20214;-84
2022/05/28 09:05:19;;;;;;;5.93;1.33;;;15.70;1.00;;;;;;5094992;28;20182;-81
2022/05/28 09:07:46;;;;;;;3.83;1.20;;;15.80;1.00;;;;;;5096158;28;20187;-84
2022/05/28 09:10:11;;;;;;;5.40;1.20;;;16.00;1.00;;;;;;5100788;28;20211;-81
2022/05/28 09:12:45;;;;;;;5.63;1.40;;;16.10;1.00;;;;;;5097167;28;20236;-84
2022/05/28 09:15:11;;;;;;;3.97;1.30;;;16.20;1.00;;;;;;5097028;28;20258;-82
2022/05/28 09:17:42;;;;;;;3.27;0.90;;;16.20;1.00;;;;;;5064173;28;20195;-82
2022/05/28 09:20:16;;;;;;;7.10;1.53;;;16.30;1.00;;;;;;5080549;28;20681;-81
2022/05/28 09:22:42;;;;;;;3.30;1.17;;;16.30;1.00;;;;;;5079787;28;20211;-81
2022/05/28 09:25:09;;;;;;;4.47;1.03;;;16.20;1.00;;;;;;5098579;28;20271;-84
2022/05/28 09:28:12;;;;;;;4.47;1.27;;;16.20;1.00;;;;;;5098632;28;20184;-83
2022/05/28 09:31:10;;;;;;;6.27;1.00;;;16.30;1.00;;;;;;5103802;28;20565;-82
2022/05/28 09:34:12;;;;;;;3.20;1.20;;;16.40;1.00;;;;;;5065217;28;20245;-85
2022/05/28 09:36:51;;;;;;;3.40;1.10;;;16.50;1.00;;;;;;5103424;28;20643;-82
2022/05/28 09:39:36;;;;;;;4.47;1.27;;;16.70;1.00;;;;;;5092972;28;20187;-83
2022/05/28 09:42:17;;;;;;;3.67;0.90;;;16.70;1.00;;;;;;5092995;28;20210;-82
2022/05/28 09:45:04;;;;;;;7.43;1.57;;;16.70;1.00;;;;;;5107981;28;20184;-82
2022/05/28 09:47:43;;;;;;;5.60;1.33;;;16.70;1.00;;;;;;5091450;28;20225;-81
2022/05/28 09:50:18;;;;;;;5.73;1.70;;;16.80;1.00;;;;;;5110038;28;20680;-83
2022/05/28 09:55:28;;;;;;;5.67;1.50;;;16.30;1.00;;;;;;5106166;28;20190;-83
2022/05/28 09:57:59;;;;;;;4.20;1.30;;;16.40;1.00;;;;;;5104875;28;20608;-79
2022/05/28 10:00:25;;;;;;;4.27;1.37;;;16.40;1.00;;;;;;5086781;28;20270;-83
2022/05/28 10:05:57;;;;;;;6.67;1.53;;;16.30;1.00;;;;;;5106766;28;20688;-83
2022/05/28 10:08:33;;;;;;;2.97;1.03;;;16.40;1.00;;;;;;5088388;28;20646;-83
2022/05/28 10:11:04;;;;;;;6.43;1.20;;;16.30;1.00;;;;;;5103681;28;20211;-80
2022/05/28 10:13:42;;;;;;;4.30;1.17;;;16.50;99.90;;;;;;5108784;28;20200;-82
2022/05/28 10:16:10;;;;;;;4.30;1.33;;;16.80;99.90;;;;;;5113928;28;20171;-80
2022/05/28 10:18:39;;;;;;;7.93;1.57;;;17.00;99.90;;;;;;5103612;28;20274;-82
2022/05/28 10:21:09;;;;;;;5.07;1.17;;;16.50;99.90;;;;;;5116616;28;20180;-81
2022/05/28 10:23:40;;;;;;;3.87;1.23;;;16.20;1.00;;;;;;5093209;28;20194;-85
2022/05/28 10:26:19;;;;;;;4.73;1.20;;;16.00;1.00;;;;;;5087142;28;20202;-84
2022/05/28 10:28:50;;;;;;;4.67;1.20;;;15.90;1.00;;;;;;5103624;28;20202;-84
2022/05/28 10:31:27;;;;;;;4.73;1.10;;;16.10;1.00;;;;;;5104019;28;20187;-85
2022/05/28 10:33:55;;;;;;;4.97;1.23;;;16.20;1.00;;;;;;5103245;28;20296;-84
2022/05/28 10:36:25;;;;;;;4.40;1.00;;;16.40;99.90;;;;;;5116135;28;20163;-83
2022/05/28 10:38:51;;;;;;;5.37;1.10;;;16.50;99.90;;;;;;5121047;28;20186;-83
2022/05/28 10:41:26;;;;;;;4.37;0.87;;;16.60;99.90;;;;;;5080122;28;20183;-83
2022/05/28 10:43:58;;;;;;;4.43;1.17;;;16.60;99.90;;;;;;5106766;28;20661;-83
2022/05/28 10:47:08;;;;;;;4.80;1.13;;;16.90;99.90;;;;;;5084781;28;20183;-83
2022/05/28 10:49:40;;;;;;;3.03;1.10;;;17.00;99.90;;;;;;5106799;28;20227;-83
2022/05/28 10:52:24;;;;;;;2.43;0.90;;;16.80;99.90;;;;;;5102489;28;20643;-82
2022/05/28 10:55:06;;;;;;;3.50;1.13;;;16.50;99.90;;;;;;5084852;28;20283;-83
2022/05/28 10:57:40;;;;;;;3.13;1.37;;;16.50;99.90;;;;;;5101205;28;20225;-83
2022/05/28 11:00:45;;;;;;;4.37;1.10;;;16.40;99.90;;;;;;5081507;28;20186;-83
2022/05/28 11:03:39;;;;;;;3.20;1.37;;;16.50;99.90;;;;;;5100584;28;20183;-79
2022/05/28 11:06:17;;;;;;;4.47;1.27;;;16.70;99.90;;;;;;5100156;28;20254;-81
2022/05/28 11:09:01;;;;;;;3.67;1.03;;;16.80;99.90;;;;;;5104808;28;20226;-81
2022/05/28 11:11:34;;;;;;;2.57;1.13;;;16.90;99.90;;;;;;5099891;28;20658;-81
2022/05/28 11:14:03;;;;;;;4.23;1.30;;;16.70;99.90;;;;;;5100851;28;20191;-81
2022/05/28 11:16:53;;;;;;;3.60;1.33;;;16.60;1.00;;;;;;5099465;28;20257;-81
2022/05/28 11:19:40;;;;;;;3.97;1.20;;;16.50;1.00;;;;;;5080915;28;20239;-80
2022/05/28 11:22:16;;;;;;;4.77;1.10;;;16.40;1.00;;;;;;5082753;28;20715;-84
2022/05/28 11:24:51;;;;;;;4.60;1.30;;;16.50;1.00;;;;;;5103835;28;20267;-79
2022/05/28 11:27:31;;;;;;;4.20;1.17;;;16.70;99.90;;;;;;5085164;28;20182;-85
2022/05/28 11:30:27;;;;;;;2.93;1.17;;;16.80;99.90;;;;;;5103632;28;20203;-84
2022/05/28 11:33:02;;;;;;;5.77;1.23;;;16.80;99.90;;;;;;5085764;28;20192;-83
2022/05/28 11:35:46;;;;;;;3.70;1.10;;;16.90;99.90;;;;;;5113811;28;20164;-81
2022/05/28 11:38:14;;;;;;;2.00;0.97;;;17.10;99.90;;;;;;5093732;28;20175;-82
2022/05/28 11:41:03;;;;;;;3.63;0.90;;;17.30;99.90;;;;;;5099780;28;20210;-83
2022/05/28 11:43:46;;;;;;;2.83;1.03;;;17.10;99.90;;;;;;5097180;28;20181;-81
2022/05/28 11:46:37;;;;;;;4.33;1.20;;;17.10;99.90;;;;;;5091666;28;20192;-85
2022/05/28 11:52:53;;;;;;;2.03;0.80;;;17.00;99.90;;;;;;5104790;28;20224;-84
2022/05/28 11:55:26;;;;;;;4.83;1.10;;;17.00;99.90;;;;;;5007900;28;20198;-81
2022/05/28 11:58:03;;;;;;;7.03;1.20;;;16.70;99.90;;;;;;4968388;28;20194;-83
2022/05/28 12:00:36;;;;;;;4.83;1.20;;;16.40;1.00;;;;;;5061584;28;20697;-82
2022/05/28 12:03:21;;;;;;;5.33;1.30;;;16.40;1.00;;;;;;5102056;28;20179;-81
2022/05/28 12:06:12;;;;;;;4.73;1.17;;;16.30;1.00;;;;;;5084399;28;20183;-81
2022/05/28 12:08:45;;;;;;;8.13;1.60;;;16.50;1.00;;;;;;5102745;28;20184;-81
2022/05/28 12:11:19;;;;;;;4.93;1.93;;;16.80;1.00;;;;;;5086964;28;20199;-84
2022/05/28 12:13:55;;;;;;;4.67;1.17;;;17.10;1.00;;;;;;5105770;28;20183;-82
2022/05/28 12:16:21;;;;;;;2.80;0.77;;;17.00;1.00;;;;;;5103042;28;20644;-83
2022/05/28 12:19:07;;;;;;;2.73;1.20;;;16.90;1.00;;;;;;5102379;28;20179;-84
2022/05/28 12:21:37;;;;;;;4.10;1.03;;;17.00;1.00;;;;;;5086765;28;20242;-82
2022/05/28 12:24:31;;;;;;;4.13;1.00;;;17.00;99.90;;;;;;5086025;28;20183;-81
2022/05/28 12:29:45;;;;;;;3.20;0.97;;;17.30;99.90;;;;;;5103641;28;20192;-84
2022/05/28 12:32:17;;;;;;;5.73;1.20;;;17.60;99.90;;;;;;5087147;28;20188;-82
2022/05/28 12:35:21;;;;;;;4.57;1.20;;;17.50;1.00;;;;;;5089058;28;20192;-85
2022/05/28 12:38:17;;;;;;;7.43;1.70;;;17.10;99.90;;;;;;5075341;28;20207;-81
2022/05/28 12:40:56;;;;;;;7.83;1.57;;;16.90;1.00;;;;;;5088951;28;20213;-85
2022/05/28 12:43:51;;;;;;;3.17;1.00;;;16.80;45.90;;;;;;5089755;28;20195;-79
2022/05/28 12:46:18;;;;;;;5.13;1.27;;;16.80;99.90;;;;;;5089799;28;20184;-82
2022/05/28 12:48:50;;;;;;;5.60;1.00;;;16.80;99.90;;;;;;5114712;28;20183;-82
2022/05/28 12:51:33;;;;;;;3.87;1.03;;;16.90;99.90;;;;;;5115989;28;20171;-84
2022/05/28 12:54:02;;;;;;;2.97;1.40;;;16.80;99.90;;;;;;5096914;28;20183;-80
2022/05/28 12:56:36;;;;;;;3.83;1.27;;;16.80;99.90;;;;;;5116013;28;20184;-82
2022/05/28 12:59:10;;;;;;;5.50;1.40;;;17.00;99.90;;;;;;5115891;28;20206;-82
2022/05/28 13:01:39;;;;;;;5.30;1.30;;;17.00;1.00;;;;;;5109219;28;20203;-83
2022/05/28 13:04:14;;;;;;;4.87;1.40;;;16.80;1.00;;;;;;5088532;28;20187;-82
2022/05/28 13:06:55;;;;;;;3.90;1.47;;;16.80;1.00;;;;;;5113887;28;20174;-80
2022/05/28 13:09:31;;;;;;;4.23;1.20;;;16.70;1.00;;;;;;5099609;28;20283;-81
2022/05/28 13:12:12;;;;;;;3.70;0.93;;;16.60;1.00;;;;;;5112966;28;20188;-81
2022/05/28 13:18:29;;;;;;;3.70;1.13;;;16.70;1.00;;;;;;5104464;28;20178;-84
2022/05/28 13:21:11;;;;;;;4.70;2.00;;;16.70;1.00;;;;;;5107412;28;20719;-85
2022/05/28 13:24:10;;;;;;;3.03;1.30;;;16.80;1.00;;;;;;5103905;28;20194;-81
2022/05/28 13:27:19;;;;;;;4.27;1.60;;;17.00;99.90;;;;;;5111932;28;20176;-82
2022/05/28 13:29:51;;;;;;;4.80;1.13;;;16.70;1.00;;;;;;5016666;28;20222;-80
2022/05/28 13:32:20;;;;;;;4.40;1.00;;;16.40;99.90;;;;;;5105178;28;20263;-80
2022/05/28 13:35:04;;;;;;;3.87;1.20;;;16.20;99.90;;;;;;5101077;28;20278;-84